Blue Ridge Highway — 3FEY4 — position and weather

sailwx.info

Track history (hours):
 
Tides and Currents Weather Stations Pressure Air Temp Water Temp Dewpoint Dewpoint Depression Visibility Wind Speed Wind Dir Waves Ship Positions

Blue Ridge Highway

Last reported at 2017-Mar-25 16:30 UTC. Time now 2017-Mar-29 22:58 UTC.
Position N 09°12' W 079°54'.

Length 180 m; draft 8.8 m.

Type: Cargo ship. MMSI: 355558000.

Date/timePositionNaut miles runAvg speedWind from/ knotsBaromVisibWave heightAir tempDewpointWater temp
2017-Mar-25 16:30N 09°12' W 079°54'4 3.4
2017-Mar-25 15:23N 09°15' W 079°55'1 1.5
2017-Mar-25 14:33N 09°16' W 079°55'0 0.4
2017-Mar-25 13:33N 09°17' W 079°55'3 3.4
2017-Mar-25 12:33N 09°20' W 079°55'6 5.7
2017-Mar-25 11:34N 09°26' W 079°55'2 1.1
2017-Mar-25 09:33N 09°27' W 079°57'0 0.0
2017-Mar-25 08:09N 09°27' W 079°57'0 0.0
2017-Mar-25 07:21N 09°27' W 079°57'0 0.0
2017-Mar-25 04:06N 09°27' W 079°57'0 0.0
2017-Mar-25 03:21N 09°27' W 079°57'0 0.0
2017-Mar-25 02:21N 09°27' W 079°57'0 0.0
2017-Mar-25 01:33N 09°27' W 079°57'0 0.0
2017-Mar-25 00:33N 09°27' W 079°57'0 0.0
2017-Mar-24 23:33N 09°27' W 079°57'0 0.0
2017-Mar-24 22:30N 09°27' W 079°57'0 0.0
2017-Mar-24 21:33N 09°27' W 079°57'0 0.0
2017-Mar-24 20:33N 09°27' W 079°57'0 0.0
2017-Mar-24 19:24N 09°27' W 079°57'1 1.7
2017-Mar-24 18:34N 09°28' W 079°55'  
Track history (hours):
 
Tides and Currents Weather Stations Pressure Air Temp Water Temp Dewpoint Dewpoint Depression Visibility Wind Speed Wind Dir Waves Ship Positions

Blue Ridge Highway

Last reported at 2017-Mar-25 16:30 UTC. Time now 2017-Mar-29 22:58 UTC.
Position N 09°12' W 079°54'.

Length 180 m; draft 8.8 m.

Type: Cargo ship. MMSI: 355558000.

Date/timePositionNaut miles runAvg speedWind from/ knotsBaromVisibWave heightAir tempDewpointWater temp
2017-Mar-25 16:30N 09°12' W 079°54'4 3.4
2017-Mar-25 15:23N 09°15' W 079°55'1 1.5
2017-Mar-25 14:33N 09°16' W 079°55'0 0.4
2017-Mar-25 13:33N 09°17' W 079°55'3 3.4
2017-Mar-25 12:33N 09°20' W 079°55'6 5.7
2017-Mar-25 11:34N 09°26' W 079°55'2 1.1
2017-Mar-25 09:33N 09°27' W 079°57'0 0.0
2017-Mar-25 08:09N 09°27' W 079°57'0 0.0
2017-Mar-25 07:21N 09°27' W 079°57'0 0.0
2017-Mar-25 04:06N 09°27' W 079°57'0 0.0
2017-Mar-25 03:21N 09°27' W 079°57'0 0.0
2017-Mar-25 02:21N 09°27' W 079°57'0 0.0
2017-Mar-25 01:33N 09°27' W 079°57'0 0.0
2017-Mar-25 00:33N 09°27' W 079°57'0 0.0
2017-Mar-24 23:33N 09°27' W 079°57'0 0.0
2017-Mar-24 22:30N 09°27' W 079°57'0 0.0
2017-Mar-24 21:33N 09°27' W 079°57'0 0.0
2017-Mar-24 20:33N 09°27' W 079°57'0 0.0
2017-Mar-24 19:24N 09°27' W 079°57'1 1.7
2017-Mar-24 18:34N 09°28' W 079°55'  

Dump ship's entire track history